createdAt,value
2023-01-17T00:02:02.803Z,3.54
2023-01-17T00:04:49.245Z,3.52
2023-01-17T00:07:37.758Z,3.55
2023-01-17T00:10:08.357Z,3.52
2023-01-17T00:12:36.612Z,3.49
2023-01-17T00:15:05.470Z,3.36
2023-01-17T00:17:32.862Z,3.27
2023-01-17T00:20:20.227Z,3.12
2023-01-17T00:23:05.659Z,3.15
2023-01-17T00:25:55.202Z,3.32
2023-01-17T00:28:22.053Z,3.12
2023-01-17T00:30:48.671Z,2.71
2023-01-17T00:33:15.216Z,2.61
2023-01-17T00:35:43.318Z,2.35
2023-01-17T00:38:11.710Z,2.40
2023-01-17T00:40:40.406Z,2.33
2023-01-17T00:43:27.074Z,2.50
2023-01-17T00:46:13.059Z,2.46
2023-01-17T00:48:59.539Z,2.48
2023-01-17T00:51:47.556Z,2.68
2023-01-17T00:54:33.059Z,2.71
2023-01-17T00:57:18.965Z,2.75
2023-01-17T01:00:04.406Z,2.78
2023-01-17T01:02:50.256Z,2.63
2023-01-17T01:05:35.606Z,2.47
2023-01-17T01:08:22.783Z,2.67
2023-01-17T01:11:08.061Z,2.73
2023-01-17T01:13:53.338Z,2.71
2023-01-17T01:16:38.803Z,2.46
2023-01-17T01:19:24.097Z,2.48
2023-01-17T01:22:09.577Z,2.51
2023-01-17T01:24:56.038Z,2.50
2023-01-17T01:27:41.320Z,2.45
2023-01-17T01:30:27.264Z,2.34
2023-01-17T01:33:12.547Z,2.13
2023-01-17T01:35:41.894Z,2.03
2023-01-17T01:38:09.737Z,1.85
2023-01-17T01:40:45.046Z,1.92
2023-01-17T01:43:14.879Z,1.87
2023-01-17T01:45:47.852Z,1.91
2023-01-17T01:48:32.824Z,1.71
2023-01-17T01:51:01.921Z,1.76
2023-01-17T01:53:31.471Z,1.82
2023-01-17T01:56:00.692Z,1.83
2023-01-17T01:58:33.023Z,1.78
2023-01-17T02:01:00.930Z,1.86
2023-01-17T02:03:32.243Z,1.60
2023-01-17T02:06:05.708Z,1.81
2023-01-17T02:08:34.361Z,1.95
2023-01-17T02:11:04.010Z,1.94
2023-01-17T02:13:31.709Z,1.89
2023-01-17T02:16:06.686Z,1.79
2023-01-17T02:18:48.593Z,1.76
2023-01-17T02:21:24.693Z,1.77
2023-01-17T02:24:29.125Z,1.77
2023-01-17T02:27:12.549Z,1.82
2023-01-17T02:30:06.895Z,1.77
2023-01-17T02:32:52.154Z,1.91
2023-01-17T02:35:28.121Z,1.94
2023-01-17T02:38:02.301Z,1.83
2023-01-17T02:40:35.406Z,1.87
2023-01-17T02:43:09.586Z,1.93
2023-01-17T02:45:37.263Z,1.88
2023-01-17T02:48:09.223Z,1.83
2023-01-17T02:50:54.719Z,1.75
2023-01-17T02:53:33.192Z,1.64
2023-01-17T02:56:08.671Z,1.68
2023-01-17T02:58:48.869Z,1.50
2023-01-17T03:01:26.662Z,1.38
2023-01-17T03:04:01.636Z,1.20
2023-01-17T03:06:36.374Z,1.35
2023-01-17T03:09:04.674Z,1.41
2023-01-17T03:11:32.415Z,1.45
2023-01-17T03:14:00.052Z,1.41
2023-01-17T03:16:32.526Z,1.33
2023-01-17T03:19:01.900Z,1.32
2023-01-17T03:21:29.608Z,1.29
2023-01-17T03:23:57.286Z,1.23
2023-01-17T03:26:24.943Z,1.42
2023-01-17T03:28:52.587Z,1.41
2023-01-17T03:31:20.792Z,1.29
2023-01-17T03:33:48.502Z,1.30
2023-01-17T03:36:18.550Z,1.35
2023-01-17T03:38:46.203Z,1.31
2023-01-17T03:41:13.865Z,1.18
2023-01-17T03:43:41.502Z,1.19
2023-01-17T03:46:19.590Z,1.22
2023-01-17T03:48:47.235Z,1.22
2023-01-17T03:51:14.923Z,1.10
2023-01-17T03:53:46.336Z,1.08
2023-01-17T03:56:14.250Z,1.06
2023-01-17T03:58:41.971Z,1.10
2023-01-17T04:01:09.808Z,0.95
2023-01-17T04:03:37.523Z,0.95
2023-01-17T04:06:05.467Z,0.88
2023-01-17T04:08:33.138Z,0.83
2023-01-17T04:11:02.237Z,0.89
2023-01-17T04:13:29.932Z,0.93
2023-01-17T04:15:57.643Z,0.89
2023-01-17T04:18:25.319Z,0.91
2023-01-17T04:20:53.160Z,0.87
2023-01-17T04:23:20.854Z,0.90
2023-01-17T04:25:48.565Z,0.94
2023-01-17T04:28:17.585Z,0.90
2023-01-17T04:30:45.195Z,0.94
2023-01-17T04:33:13.217Z,0.94
2023-01-17T04:35:41.031Z,1.02
2023-01-17T04:38:08.742Z,0.93
2023-01-17T04:40:36.428Z,1.02
2023-01-17T04:43:04.394Z,0.99
2023-01-17T04:45:33.367Z,0.95
2023-01-17T04:48:04.879Z,0.88
2023-01-17T04:50:32.677Z,0.73
2023-01-17T04:53:00.505Z,0.71
2023-01-17T04:55:28.423Z,0.69
2023-01-17T04:57:56.211Z,0.65
2023-01-17T05:00:24.297Z,0.54
2023-01-17T05:02:53.455Z,0.42
2023-01-17T05:05:21.218Z,0.51
2023-01-17T05:07:54.746Z,0.47
2023-01-17T05:10:22.770Z,0.53
2023-01-17T05:12:57.051Z,0.33
2023-01-17T05:15:26.080Z,0.35
2023-01-17T05:17:55.706Z,0.28
2023-01-17T05:20:25.484Z,0.24
2023-01-17T05:22:55.788Z,0.26
2023-01-17T05:25:24.222Z,0.32
2023-01-17T05:27:51.940Z,0.33
2023-01-17T05:30:20.402Z,0.31
2023-01-17T05:32:50.397Z,0.32
2023-01-17T05:35:20.511Z,0.33
2023-01-17T05:37:49.972Z,0.39
2023-01-17T05:40:18.688Z,0.47
2023-01-17T05:42:47.278Z,0.46
2023-01-17T05:45:17.034Z,0.32
2023-01-17T05:47:44.834Z,0.35
2023-01-17T05:50:13.933Z,0.32
2023-01-17T05:52:43.239Z,0.31
2023-01-17T05:55:11.117Z,0.50
2023-01-17T05:57:39.785Z,0.62
2023-01-17T06:00:08.959Z,0.71
2023-01-17T06:02:36.698Z,0.81
2023-01-17T06:05:04.822Z,0.86
2023-01-17T06:07:32.782Z,0.88
2023-01-17T06:10:01.898Z,0.86
2023-01-17T06:12:29.505Z,0.90
2023-01-17T06:14:57.139Z,0.90
2023-01-17T06:17:25.070Z,0.92
2023-01-17T06:19:52.711Z,0.94
2023-01-17T06:22:20.416Z,0.85
2023-01-17T06:24:48.039Z,0.74
2023-01-17T06:27:17.047Z,0.63
2023-01-17T06:29:44.695Z,0.57
2023-01-17T06:32:14.089Z,0.58
2023-01-17T06:34:41.839Z,0.59
2023-01-17T06:37:11.282Z,0.60
2023-01-17T06:39:39.025Z,0.58
2023-01-17T06:42:06.723Z,0.64
2023-01-17T06:44:35.719Z,0.51
2023-01-17T06:47:03.372Z,0.49
2023-01-17T06:49:31.117Z,0.56
2023-01-17T06:51:58.810Z,0.57
2023-01-17T06:54:27.019Z,0.49
2023-01-17T06:56:54.759Z,0.55
2023-01-17T06:59:22.567Z,0.55
2023-01-17T07:01:52.423Z,0.56
2023-01-17T07:04:20.133Z,0.63
2023-01-17T07:06:47.851Z,0.54
2023-01-17T07:09:15.833Z,0.32
2023-01-17T07:11:45.288Z,0.44
2023-01-17T07:14:14.574Z,0.35
2023-01-17T07:16:45.222Z,0.35
2023-01-17T07:19:14.760Z,0.42
2023-01-17T07:21:42.447Z,0.38
2023-01-17T07:24:10.445Z,0.33
2023-01-17T07:26:40.115Z,0.40
2023-01-17T07:29:08.062Z,0.34
2023-01-17T07:31:38.065Z,0.27
2023-01-17T07:34:05.792Z,0.27
2023-01-17T07:36:34.986Z,0.23
2023-01-17T07:39:05.429Z,0.23
2023-01-17T07:41:34.709Z,0.26
2023-01-17T07:44:02.363Z,0.24
2023-01-17T07:46:30.111Z,0.21
2023-01-17T07:48:57.773Z,0.07
2023-01-17T07:51:25.493Z,0.09
2023-01-17T07:53:54.537Z,0.10
2023-01-17T07:56:22.538Z,-0.19
2023-01-17T07:58:50.163Z,0.17
2023-01-17T08:01:18.348Z,0.24
2023-01-17T08:03:46.154Z,0.18
2023-01-17T08:06:19.404Z,0.24
2023-01-17T08:08:47.162Z,0.29
2023-01-17T08:11:16.455Z,0.26
2023-01-17T08:13:44.064Z,0.27
2023-01-17T08:16:12.578Z,0.33
2023-01-17T08:18:40.809Z,0.49
2023-01-17T08:21:15.335Z,0.35
2023-01-17T08:23:43.017Z,0.42
2023-01-17T08:26:12.188Z,0.46
2023-01-17T08:28:41.224Z,0.44
2023-01-17T08:31:09.787Z,0.41
2023-01-17T08:33:37.550Z,0.39
2023-01-17T08:36:05.664Z,0.35
2023-01-17T08:38:33.293Z,0.37
2023-01-17T08:41:01.895Z,0.41
2023-01-17T08:43:29.490Z,0.41
2023-01-17T08:45:58.485Z,0.49
2023-01-17T08:48:26.184Z,0.44
2023-01-17T08:50:54.745Z,0.39
2023-01-17T08:53:23.365Z,0.48
2023-01-17T08:55:58.840Z,0.42
2023-01-17T08:58:30.305Z,0.40
2023-01-17T09:01:03.071Z,0.35
2023-01-17T09:03:31.228Z,0.42
2023-01-17T09:06:02.957Z,0.31
2023-01-17T09:08:31.486Z,0.29
2023-01-17T09:10:59.723Z,0.35
2023-01-17T09:13:27.366Z,0.30
2023-01-17T09:15:57.404Z,0.32
2023-01-17T09:18:27.226Z,0.26
2023-01-17T09:20:55.327Z,0.26
2023-01-17T09:23:23.483Z,0.32
2023-01-17T09:25:54.315Z,0.43
2023-01-17T09:28:22.121Z,0.41
2023-01-17T09:30:50.199Z,0.44
2023-01-17T09:33:18.474Z,0.50
2023-01-17T09:35:48.029Z,0.55
2023-01-17T09:38:15.652Z,0.68
2023-01-17T09:40:45.669Z,0.76
2023-01-17T09:43:23.916Z,0.79
2023-01-17T09:45:52.138Z,0.91
2023-01-17T09:48:26.273Z,0.88
2023-01-17T09:50:59.831Z,0.94
2023-01-17T09:53:29.964Z,1.07
2023-01-17T09:56:00.163Z,1.08
2023-01-17T09:58:38.843Z,0.99
2023-01-17T10:01:15.653Z,1.06
2023-01-17T10:03:49.278Z,0.94
2023-01-17T10:06:43.870Z,1.16
2023-01-17T10:09:30.069Z,1.14
2023-01-17T10:12:14.747Z,1.18
2023-01-17T10:15:29.612Z,1.08
2023-01-17T10:18:07.235Z,1.17
2023-01-17T10:20:47.517Z,1.24
2023-01-17T10:23:33.754Z,1.30
2023-01-17T10:26:04.090Z,1.36
2023-01-17T10:28:35.894Z,1.49
2023-01-17T10:31:06.896Z,1.46
2023-01-17T10:33:41.376Z,1.48
2023-01-17T10:36:15.286Z,1.63
2023-01-17T10:38:48.027Z,1.60
2023-01-17T10:41:22.876Z,1.60
2023-01-17T10:43:58.545Z,1.72
2023-01-17T10:46:32.596Z,1.88
2023-01-17T10:49:01.617Z,1.98
2023-01-17T10:51:49.814Z,2.13
2023-01-17T10:54:35.273Z,2.55
2023-01-17T10:57:03.067Z,2.76
2023-01-17T10:59:33.516Z,2.78
2023-01-17T11:02:06.765Z,2.65
2023-01-17T11:04:37.204Z,2.34
2023-01-17T11:07:15.792Z,2.26
2023-01-17T11:09:46.499Z,2.35
2023-01-17T11:12:21.853Z,2.32
2023-01-17T11:14:58.527Z,2.13
2023-01-17T11:17:27.516Z,2.17
2023-01-17T11:19:55.789Z,2.09
2023-01-17T11:22:24.968Z,2.17
2023-01-17T11:24:58.160Z,2.11
2023-01-17T11:27:27.840Z,2.09
2023-01-17T11:30:15.731Z,2.09
2023-01-17T11:32:52.978Z,2.07
2023-01-17T11:35:22.516Z,1.98
2023-01-17T11:37:58.674Z,1.95
2023-01-17T11:40:30.530Z,1.69
2023-01-17T11:43:21.083Z,2.00
2023-01-17T11:46:02.472Z,2.03
2023-01-17T11:48:36.356Z,2.06
2023-01-17T11:51:05.809Z,2.07
2023-01-17T11:53:35.933Z,2.08
2023-01-17T11:56:08.591Z,2.13
2023-01-17T11:58:39.375Z,2.20
2023-01-17T12:01:25.441Z,2.26
2023-01-17T12:04:13.683Z,2.22
2023-01-17T12:06:57.585Z,2.37
2023-01-17T12:09:35.087Z,2.45
2023-01-17T12:12:31.032Z,2.47
2023-01-17T12:15:10.787Z,2.53
2023-01-17T12:18:09.092Z,2.58
2023-01-17T12:20:48.433Z,2.56
2023-01-17T12:23:35.581Z,2.49
2023-01-17T12:26:23.907Z,2.56
2023-01-17T12:29:34.418Z,2.64
2023-01-17T12:32:19.513Z,2.68
2023-01-17T12:34:54.291Z,2.69
2023-01-17T12:37:29.472Z,2.87
2023-01-17T12:40:03.307Z,2.78
2023-01-17T12:42:37.676Z,2.79
2023-01-17T12:45:11.161Z,2.88
2023-01-17T12:47:43.227Z,2.85
2023-01-17T12:50:22.158Z,2.84
2023-01-17T12:52:55.195Z,2.91
2023-01-17T12:55:32.230Z,2.96
2023-01-17T12:58:03.453Z,2.95
2023-01-17T13:00:36.987Z,2.86
2023-01-17T13:03:14.304Z,2.91
2023-01-17T13:05:46.748Z,2.98
2023-01-17T13:08:24.811Z,3.04
2023-01-17T13:10:57.275Z,3.05
2023-01-17T13:13:27.268Z,3.08
2023-01-17T13:16:01.909Z,3.03
2023-01-17T13:18:33.091Z,3.09
2023-01-17T13:21:25.126Z,3.08
2023-01-17T13:24:10.440Z,3.08
2023-01-17T13:26:54.444Z,3.11
2023-01-17T13:29:30.927Z,3.07
2023-01-17T13:32:10.723Z,3.13
2023-01-17T13:35:02.404Z,3.17
2023-01-17T13:38:08.282Z,3.20
2023-01-17T13:40:40.849Z,3.10
2023-01-17T13:43:14.563Z,3.20
2023-01-17T13:45:42.465Z,3.13
2023-01-17T13:48:32.546Z,3.28
2023-01-17T13:51:02.273Z,3.19
2023-01-17T13:53:59.803Z,3.14
2023-01-17T13:56:35.518Z,3.16
2023-01-17T13:59:28.140Z,3.28
2023-01-17T14:01:56.110Z,3.22
2023-01-17T14:04:46.195Z,3.24
2023-01-17T14:07:27.560Z,3.36
2023-01-17T14:09:57.213Z,3.29
2023-01-17T14:12:36.420Z,3.29
2023-01-17T14:15:06.589Z,3.43
2023-01-17T14:17:55.727Z,3.37
2023-01-17T14:20:47.959Z,3.41
2023-01-17T14:23:33.442Z,3.49
2023-01-17T14:26:15.129Z,3.54
2023-01-17T14:28:42.933Z,3.56
2023-01-17T14:31:12.345Z,3.57
2023-01-17T14:33:41.994Z,3.66
2023-01-17T14:36:19.592Z,3.47
2023-01-17T14:38:49.023Z,3.36
2023-01-17T14:41:21.429Z,3.49
2023-01-17T14:43:51.389Z,3.63
2023-01-17T14:46:24.976Z,3.53
2023-01-17T14:48:59.646Z,3.61
2023-01-17T14:51:28.218Z,3.49
2023-01-17T14:53:58.830Z,3.50
2023-01-17T14:56:27.972Z,3.46
2023-01-17T14:59:06.022Z,3.35
2023-01-17T15:01:35.595Z,3.36
2023-01-17T15:04:04.427Z,3.36
2023-01-17T15:06:38.381Z,3.26
2023-01-17T15:09:19.669Z,3.30
2023-01-17T15:11:49.727Z,3.21
2023-01-17T15:14:21.560Z,3.13
2023-01-17T15:16:51.805Z,3.19
2023-01-17T15:19:20.455Z,3.08
2023-01-17T15:21:50.847Z,3.00
2023-01-17T15:24:23.703Z,2.63
2023-01-17T15:26:51.588Z,2.90
2023-01-17T15:29:25.136Z,2.96
2023-01-17T15:31:55.161Z,2.86
2023-01-17T15:34:28.716Z,2.74
2023-01-17T15:36:58.523Z,2.71
2023-01-17T15:39:30.715Z,2.60
2023-01-17T15:42:00.344Z,2.59
2023-01-17T15:44:50.260Z,2.50
2023-01-17T15:47:30.377Z,2.64
2023-01-17T15:49:58.689Z,2.49
2023-01-17T15:52:26.343Z,2.31
2023-01-17T15:55:00.099Z,2.39
2023-01-17T15:57:30.196Z,2.38
2023-01-17T16:00:05.732Z,2.37
2023-01-17T16:02:36.973Z,2.14
2023-01-17T16:05:45.674Z,2.08
2023-01-17T16:08:32.642Z,2.02
2023-01-17T16:11:05.438Z,2.03
2023-01-17T16:13:35.358Z,2.00
2023-01-17T16:16:20.389Z,1.93
2023-01-17T16:18:49.289Z,1.85
2023-01-17T16:21:19.689Z,1.78
2023-01-17T16:23:47.471Z,1.67
2023-01-17T16:26:17.020Z,1.65
2023-01-17T16:28:44.820Z,1.62
2023-01-17T16:31:12.743Z,1.56
2023-01-17T16:33:43.353Z,1.47
2023-01-17T16:36:16.581Z,1.47
2023-01-17T16:38:45.786Z,1.37
2023-01-17T16:41:13.899Z,1.37
2023-01-17T16:43:42.960Z,1.29
2023-01-17T16:46:12.369Z,1.28
2023-01-17T16:48:40.013Z,1.18
2023-01-17T16:51:09.106Z,1.13
2023-01-17T16:53:37.563Z,1.07
2023-01-17T16:56:11.910Z,1.12
2023-01-17T16:58:39.550Z,1.07
2023-01-17T17:01:11.574Z,0.96
2023-01-17T17:03:39.364Z,0.98
2023-01-17T17:06:07.439Z,0.96
2023-01-17T17:08:35.913Z,0.93
2023-01-17T17:11:15.423Z,0.92
2023-01-17T17:13:44.429Z,0.88
2023-01-17T17:16:23.821Z,0.88
2023-01-17T17:18:56.301Z,0.71
2023-01-17T17:21:24.242Z,0.79
2023-01-17T17:23:56.801Z,0.80
2023-01-17T17:26:26.617Z,0.74
2023-01-17T17:28:54.994Z,0.66
2023-01-17T17:31:24.773Z,0.51
2023-01-17T17:33:52.601Z,0.58
2023-01-17T17:36:20.430Z,0.55
2023-01-17T17:38:54.308Z,0.51
2023-01-17T17:41:24.061Z,0.48
2023-01-17T17:43:52.482Z,0.40
2023-01-17T17:46:21.046Z,0.49
2023-01-17T17:48:50.631Z,0.47
2023-01-17T17:51:24.490Z,0.44
2023-01-17T17:53:52.655Z,0.24
2023-01-17T17:56:20.653Z,0.38
2023-01-17T17:58:48.818Z,0.34
2023-01-17T18:01:16.884Z,0.31
2023-01-17T18:03:44.601Z,0.28
2023-01-17T18:06:14.096Z,0.27
2023-01-17T18:08:41.742Z,0.25
2023-01-17T18:11:14.065Z,0.26
2023-01-17T18:13:43.335Z,0.13
2023-01-17T18:16:12.946Z,0.19
2023-01-17T18:18:42.418Z,0.19
2023-01-17T18:21:14.953Z,0.21
2023-01-17T18:23:44.509Z,0.22
2023-01-17T18:26:20.859Z,0.21
2023-01-17T18:28:48.794Z,0.17
2023-01-17T18:31:16.720Z,0.14
2023-01-17T18:33:44.617Z,-0.09
2023-01-17T18:36:14.850Z,0.09
2023-01-17T18:38:44.199Z,0.06
2023-01-17T18:41:13.586Z,-0.01
2023-01-17T18:43:41.684Z,-0.05
2023-01-17T18:46:11.509Z,-0.05
2023-01-17T18:48:39.884Z,-0.05
2023-01-17T18:51:09.754Z,-0.08
2023-01-17T18:53:40.466Z,-0.02
2023-01-17T18:56:09.942Z,0.03
2023-01-17T18:58:39.249Z,-0.03
2023-01-17T19:01:10.023Z,-0.40
2023-01-17T19:03:38.524Z,-0.14
2023-01-17T19:06:07.655Z,-0.14
2023-01-17T19:08:36.285Z,-0.18
2023-01-17T19:11:05.876Z,-0.17
2023-01-17T19:13:34.816Z,-0.16
2023-01-17T19:16:03.468Z,-0.11
2023-01-17T19:18:31.451Z,-0.11
2023-01-17T19:21:05.442Z,-0.15
2023-01-17T19:23:34.443Z,-0.38
2023-01-17T19:26:02.489Z,-0.20
2023-01-17T19:28:33.671Z,-0.16
2023-01-17T19:31:04.558Z,-0.18
2023-01-17T19:33:32.545Z,-0.18
2023-01-17T19:36:00.949Z,-0.16
2023-01-17T19:38:28.661Z,-0.08
2023-01-17T19:40:56.341Z,-0.10
2023-01-17T19:43:24.395Z,-0.29
2023-01-17T19:46:00.780Z,-0.20
2023-01-17T19:48:29.124Z,-0.28
2023-01-17T19:50:57.262Z,-0.42
2023-01-17T19:53:25.263Z,-0.34
2023-01-17T19:55:52.916Z,-0.33
2023-01-17T19:58:20.647Z,-0.28
2023-01-17T20:00:48.374Z,-0.38
2023-01-17T20:03:17.404Z,-0.34
2023-01-17T20:05:46.048Z,-0.44
2023-01-17T20:08:14.205Z,-0.34
2023-01-17T20:10:41.795Z,-0.38
2023-01-17T20:13:09.495Z,-0.34
2023-01-17T20:15:37.185Z,-0.35
2023-01-17T20:18:05.040Z,-0.30
2023-01-17T20:20:34.513Z,-0.39
2023-01-17T20:23:05.422Z,-0.39
2023-01-17T20:25:33.032Z,-0.48
2023-01-17T20:28:00.715Z,-0.39
2023-01-17T20:30:30.456Z,-0.44
2023-01-17T20:32:58.313Z,-0.40
2023-01-17T20:35:28.510Z,-0.58
2023-01-17T20:37:57.861Z,-0.66
2023-01-17T20:40:25.762Z,-0.65
2023-01-17T20:42:53.395Z,-0.62
2023-01-17T20:45:21.100Z,-0.65
2023-01-17T20:47:49.578Z,-0.74
2023-01-17T20:50:17.381Z,-0.64
2023-01-17T20:52:44.992Z,-0.66
2023-01-17T20:55:14.090Z,-0.67
2023-01-17T20:57:41.794Z,-0.63
2023-01-17T21:00:10.789Z,-0.61
2023-01-17T21:02:38.460Z,-0.64
2023-01-17T21:05:07.279Z,-0.65
2023-01-17T21:07:34.944Z,-0.64
2023-01-17T21:10:03.666Z,-0.62
2023-01-17T21:12:33.139Z,-0.62
2023-01-17T21:15:01.017Z,-0.59
2023-01-17T21:17:29.019Z,-0.67
2023-01-17T21:19:56.657Z,-0.59
2023-01-17T21:22:24.264Z,-0.59
2023-01-17T21:24:54.014Z,-0.64
2023-01-17T21:27:21.710Z,-0.60
2023-01-17T21:29:52.865Z,-0.59
2023-01-17T21:32:20.681Z,-0.57
2023-01-17T21:34:48.337Z,-0.67
2023-01-17T21:37:15.915Z,-0.69
2023-01-17T21:39:43.524Z,-0.66
2023-01-17T21:42:11.180Z,-0.63
2023-01-17T21:44:38.770Z,-0.67
2023-01-17T21:47:07.960Z,-0.68
2023-01-17T21:49:35.632Z,-0.76
2023-01-17T21:52:21.450Z,-0.73
2023-01-17T21:55:06.761Z,-0.67
2023-01-17T21:57:48.373Z,-0.66
2023-01-17T22:00:16.858Z,-0.80
2023-01-17T22:02:48.731Z,-0.72
2023-01-17T22:05:18.560Z,-0.68
2023-01-17T22:08:00.316Z,-0.77
2023-01-17T22:10:28.246Z,-0.72
2023-01-17T22:12:55.920Z,-0.68
2023-01-17T22:15:24.438Z,-0.75
2023-01-17T22:17:53.630Z,-0.75
2023-01-17T22:20:22.294Z,-0.75
2023-01-17T22:22:50.013Z,-0.81
2023-01-17T22:25:17.748Z,-0.81
2023-01-17T22:27:45.335Z,-0.81
2023-01-17T22:30:13.973Z,-0.84
2023-01-17T22:32:42.099Z,-0.90
2023-01-17T22:35:11.161Z,-0.92
2023-01-17T22:37:38.875Z,-0.95
2023-01-17T22:40:10.047Z,-0.84
2023-01-17T22:42:37.993Z,-0.93
2023-01-17T22:45:07.424Z,-0.90
2023-01-17T22:47:35.091Z,-0.85
2023-01-17T22:50:03.017Z,-0.86
2023-01-17T22:52:32.216Z,-0.92
2023-01-17T22:55:00.467Z,-0.97
2023-01-17T22:57:28.218Z,-1.03
2023-01-17T22:59:56.315Z,-1.03
2023-01-17T23:02:24.133Z,-1.11
2023-01-17T23:04:51.827Z,-1.13
2023-01-17T23:07:19.428Z,-1.02
2023-01-17T23:09:48.441Z,-1.14
2023-01-17T23:12:16.041Z,-1.14
2023-01-17T23:15:01.516Z,-1.06
2023-01-17T23:17:46.997Z,-1.13
2023-01-17T23:20:14.878Z,-1.15
2023-01-17T23:22:42.844Z,-1.18
2023-01-17T23:25:13.900Z,-1.20
2023-01-17T23:28:00.917Z,-1.15
2023-01-17T23:30:34.782Z,-1.20
2023-01-17T23:33:03.944Z,-1.16
2023-01-17T23:35:33.430Z,-1.22
2023-01-17T23:38:19.323Z,-1.23
2023-01-17T23:41:09.060Z,-1.25
2023-01-17T23:43:36.791Z,-1.27
2023-01-17T23:46:05.815Z,-1.42
2023-01-17T23:48:33.438Z,-1.40
2023-01-17T23:51:02.455Z,-1.38
2023-01-17T23:53:30.128Z,-1.39
2023-01-17T23:56:00.217Z,-1.37
2023-01-17T23:58:29.197Z,-1.33
